createdAt,value
2019-05-01T00:01:18.648Z,21.87
2019-05-01T00:03:59.931Z,14.90
2019-05-01T00:06:39.192Z,19.23
2019-05-01T00:09:10.753Z,19.67
2019-05-01T00:11:40.932Z,16.40
2019-05-01T00:14:10.937Z,16.65
2019-05-01T00:16:42.619Z,20.17
2019-05-01T00:19:12.419Z,20.25
2019-05-01T00:21:43.024Z,18.37
2019-05-01T00:24:12.677Z,20.43
2019-05-01T00:26:42.335Z,19.83
2019-05-01T00:29:12.180Z,15.20
2019-05-01T00:31:41.869Z,15.77
2019-05-01T00:34:11.577Z,15.60
2019-05-01T00:36:41.245Z,22.77
2019-05-01T00:39:12.544Z,18.55
2019-05-01T00:41:42.616Z,16.20
2019-05-01T00:44:13.345Z,19.63
2019-05-01T00:46:42.998Z,19.53
2019-05-01T00:49:12.663Z,20.33
2019-05-01T00:51:42.311Z,21.57
2019-05-01T00:54:11.963Z,17.40
2019-05-01T00:56:55.542Z,20.73
2019-05-01T00:59:35.456Z,22.03
2019-05-01T01:02:24.568Z,23.10
2019-05-01T01:04:54.740Z,22.20
2019-05-01T01:07:25.497Z,25.63
2019-05-01T01:09:55.165Z,23.10
2019-05-01T01:12:25.018Z,20.72
2019-05-01T01:14:54.957Z,21.50
2019-05-01T01:17:24.612Z,27.07
2019-05-01T01:19:54.278Z,26.63
2019-05-01T01:22:24.109Z,23.50
2019-05-01T01:24:54.246Z,26.13
2019-05-01T01:27:24.788Z,23.80
2019-05-01T01:29:54.845Z,28.57
2019-05-01T01:32:24.700Z,23.03
2019-05-01T01:34:54.749Z,24.13
2019-05-01T01:37:24.661Z,21.87
2019-05-01T01:39:54.340Z,25.67
2019-05-01T01:42:24.264Z,30.60
2019-05-01T01:45:03.303Z,25.03
2019-05-01T01:47:33.562Z,27.13
2019-05-01T01:50:03.380Z,32.27
2019-05-01T01:52:33.194Z,38.83
2019-05-01T01:55:03.308Z,28.33
2019-05-01T01:57:33.386Z,36.13
2019-05-01T02:00:04.846Z,36.30
2019-05-01T02:02:49.650Z,40.77
2019-05-01T02:05:22.949Z,39.27
2019-05-01T02:07:52.691Z,36.37
2019-05-01T02:10:22.862Z,34.80
2019-05-01T02:12:52.724Z,31.00
2019-05-01T02:15:22.809Z,36.63
2019-05-01T02:17:52.804Z,36.80
2019-05-01T02:20:23.519Z,38.55
2019-05-01T02:22:53.173Z,30.80
2019-05-01T02:25:23.426Z,36.07
2019-05-01T02:28:12.267Z,35.20
2019-05-01T02:30:46.072Z,38.58
2019-05-01T02:33:16.288Z,35.20
2019-05-01T02:35:46.708Z,35.40
2019-05-01T02:38:16.915Z,39.43
2019-05-01T02:40:58.114Z,37.77
2019-05-01T02:43:31.120Z,34.80
2019-05-01T02:46:03.010Z,41.53
2019-05-01T02:48:35.617Z,58.67
2019-05-01T02:51:05.955Z,44.33
2019-05-01T02:53:38.798Z,43.28
2019-05-01T02:56:17.783Z,43.07
2019-05-01T02:58:50.424Z,44.23
2019-05-01T03:01:20.282Z,67.47
2019-05-01T03:03:51.385Z,66.70
2019-05-01T03:06:21.963Z,66.93
2019-05-01T03:08:53.369Z,74.43
2019-05-01T03:11:23.449Z,76.35
2019-05-01T03:13:57.090Z,97.65
2019-05-01T03:16:27.106Z,89.43
2019-05-01T03:18:59.450Z,91.23
2019-05-01T03:21:35.491Z,96.97
2019-05-01T03:24:13.029Z,99.35
2019-05-01T03:26:43.441Z,91.10
2019-05-01T03:29:13.537Z,94.70
2019-05-01T03:31:43.281Z,99.53
2019-05-01T03:34:13.384Z,106.30
2019-05-01T03:36:43.298Z,94.37
2019-05-01T03:39:12.954Z,98.63
2019-05-01T03:41:42.998Z,97.00
2019-05-01T03:44:13.115Z,103.60
2019-05-01T03:46:43.239Z,93.22
2019-05-01T03:49:14.362Z,103.17
2019-05-01T03:51:45.259Z,93.03
2019-05-01T03:54:15.154Z,97.77
2019-05-01T03:56:45.319Z,94.17
2019-05-01T03:59:15.222Z,48.45
2019-05-01T04:01:57.428Z,78.90
2019-05-01T04:04:29.087Z,95.30
2019-05-01T04:06:58.842Z,86.37
2019-05-01T04:09:28.655Z,91.57
2019-05-01T04:11:58.465Z,95.55
2019-05-01T04:14:28.384Z,81.15
2019-05-01T04:17:07.442Z,96.50
2019-05-01T04:19:37.982Z,90.20
2019-05-01T04:22:11.850Z,82.33
2019-05-01T04:24:42.748Z,83.87
2019-05-01T04:27:18.470Z,92.70
2019-05-01T04:30:03.549Z,97.77
2019-05-01T04:32:51.152Z,94.27
2019-05-01T04:35:26.101Z,96.77
2019-05-01T04:37:58.322Z,99.23
2019-05-01T04:40:28.250Z,94.83
2019-05-01T04:42:58.259Z,90.20
2019-05-01T04:45:28.864Z,91.95
2019-05-01T04:47:59.255Z,100.15
2019-05-01T04:50:30.120Z,93.90
2019-05-01T04:53:00.015Z,94.87
2019-05-01T04:55:29.810Z,102.82
2019-05-01T04:57:59.800Z,95.10
2019-05-01T05:00:30.643Z,94.40
2019-05-01T05:03:05.582Z,100.67
2019-05-01T05:05:36.050Z,91.97
2019-05-01T05:08:05.981Z,88.23
2019-05-01T05:10:36.174Z,89.30
2019-05-01T05:13:29.126Z,93.10
2019-05-01T05:16:17.632Z,89.33
2019-05-01T05:18:48.021Z,92.45
2019-05-01T05:21:18.159Z,87.87
2019-05-01T05:23:48.397Z,91.50
2019-05-01T05:26:18.063Z,95.30
2019-05-01T05:28:49.303Z,86.90
2019-05-01T05:31:20.489Z,84.58
2019-05-01T05:33:51.733Z,83.57
2019-05-01T05:36:24.446Z,87.03
2019-05-01T05:39:08.554Z,88.67
2019-05-01T05:41:38.877Z,85.77
2019-05-01T05:44:08.613Z,89.33
2019-05-01T05:46:38.443Z,90.27
2019-05-01T05:49:08.458Z,89.60
2019-05-01T05:51:59.815Z,95.03
2019-05-01T05:54:57.072Z,89.77
2019-05-01T05:57:37.167Z,95.57
2019-05-01T06:00:33.544Z,80.03
2019-05-01T06:03:35.167Z,81.90
2019-05-01T06:06:15.123Z,80.43
2019-05-01T06:08:49.661Z,80.05
2019-05-01T06:11:51.525Z,86.93
2019-05-01T06:14:46.013Z,91.77
2019-05-01T06:17:35.181Z,84.92
2019-05-01T06:20:27.640Z,81.23
2019-05-01T06:23:26.250Z,86.42
2019-05-01T06:26:02.275Z,84.80
2019-05-01T06:28:32.124Z,96.00
2019-05-01T06:31:23.012Z,84.43
2019-05-01T06:33:53.074Z,88.27
2019-05-01T06:36:23.799Z,82.83
2019-05-01T06:38:53.588Z,83.47
2019-05-01T06:41:28.802Z,79.90
2019-05-01T06:44:11.651Z,80.38
2019-05-01T06:47:06.331Z,84.90
2019-05-01T06:49:50.657Z,85.07
2019-05-01T06:52:24.896Z,77.75
2019-05-01T06:54:55.534Z,76.07
2019-05-01T06:57:26.338Z,76.33
2019-05-01T06:59:58.294Z,65.50
2019-05-01T07:02:29.831Z,81.87
2019-05-01T07:05:02.753Z,68.45
2019-05-01T07:07:33.566Z,66.97
2019-05-01T07:10:04.854Z,64.95
2019-05-01T07:12:35.757Z,73.13
2019-05-01T07:15:06.796Z,66.13
2019-05-01T07:17:36.882Z,70.50
2019-05-01T07:20:38.475Z,67.27
2019-05-01T07:23:12.743Z,68.67
2019-05-01T07:25:40.828Z,45.57
2019-05-01T07:28:10.573Z,57.08
2019-05-01T07:30:49.801Z,67.53
2019-05-01T07:33:18.972Z,57.75
2019-05-01T07:35:48.929Z,59.48
2019-05-01T07:38:19.011Z,59.43
2019-05-01T07:40:49.227Z,51.42
2019-05-01T07:43:47.916Z,48.58
2019-05-01T07:46:26.611Z,57.87
2019-05-01T07:48:56.741Z,55.45
2019-05-01T07:51:26.646Z,53.97
2019-05-01T07:53:59.010Z,56.57
2019-05-01T07:56:30.075Z,57.95
2019-05-01T07:58:59.970Z,43.87
2019-05-01T08:02:06.759Z,45.33
2019-05-01T08:04:36.755Z,53.93
2019-05-01T08:07:06.640Z,52.95
2019-05-01T08:09:36.625Z,47.13
2019-05-01T08:12:06.287Z,46.23
2019-05-01T08:14:36.229Z,50.43
2019-05-01T08:17:06.051Z,46.80
2019-05-01T08:19:43.395Z,45.38
2019-05-01T08:22:19.254Z,53.07
2019-05-01T08:24:48.927Z,49.67
2019-05-01T08:27:25.725Z,53.03
2019-05-01T08:30:17.437Z,48.43
2019-05-01T08:33:14.565Z,48.30
2019-05-01T08:35:42.999Z,52.27
2019-05-01T08:38:12.655Z,46.10
2019-05-01T08:40:42.384Z,45.80
2019-05-01T08:43:13.657Z,40.10
2019-05-01T08:46:02.474Z,45.73
2019-05-01T08:48:39.610Z,37.27
2019-05-01T08:51:09.432Z,37.43
2019-05-01T08:53:39.102Z,40.97
2019-05-01T08:56:09.850Z,36.55
2019-05-01T08:58:39.857Z,40.52
2019-05-01T09:01:10.860Z,40.60
2019-05-01T09:03:41.135Z,45.10
2019-05-01T09:06:10.821Z,42.67
2019-05-01T09:08:40.483Z,42.43
2019-05-01T09:11:10.263Z,39.77
2019-05-01T09:13:40.203Z,49.23
2019-05-01T09:16:09.879Z,36.42
2019-05-01T09:18:39.544Z,40.90
2019-05-01T09:21:09.524Z,33.33
2019-05-01T09:23:39.252Z,35.40
2019-05-01T09:26:27.144Z,36.08
2019-05-01T09:29:01.080Z,34.55
2019-05-01T09:31:35.392Z,31.80
2019-05-01T09:34:05.100Z,36.17
2019-05-01T09:36:34.867Z,35.77
2019-05-01T09:39:06.972Z,34.05
2019-05-01T09:41:43.069Z,39.17
2019-05-01T09:44:12.131Z,38.10
2019-05-01T09:46:41.934Z,38.57
2019-05-01T09:49:14.351Z,32.60
2019-05-01T09:51:59.138Z,35.33
2019-05-01T09:54:37.887Z,33.90
2019-05-01T09:57:07.607Z,36.93
2019-05-01T09:59:37.731Z,35.45
2019-05-01T10:02:09.101Z,36.37
2019-05-01T10:04:39.103Z,34.03
2019-05-01T10:07:08.908Z,39.63
2019-05-01T10:09:38.919Z,32.13
2019-05-01T10:12:11.470Z,33.60
2019-05-01T10:14:40.039Z,33.60
2019-05-01T10:17:09.716Z,29.90
2019-05-01T10:19:39.379Z,30.23
2019-05-01T10:22:09.138Z,30.70
2019-05-01T10:24:39.394Z,29.65
2019-05-01T10:27:11.806Z,30.80
2019-05-01T10:30:12.984Z,29.30
2019-05-01T10:32:45.951Z,33.67
2019-05-01T10:35:42.549Z,32.55
2019-05-01T10:38:09.212Z,28.27
2019-05-01T10:40:36.092Z,29.10
2019-05-01T10:43:06.379Z,31.83
2019-05-01T10:45:37.358Z,30.93
2019-05-01T10:48:07.111Z,34.87
2019-05-01T10:50:36.771Z,31.83
2019-05-01T10:53:07.769Z,26.47
2019-05-01T10:55:37.431Z,35.03
2019-05-01T10:58:07.659Z,32.27
2019-05-01T11:00:39.240Z,28.60
2019-05-01T11:03:09.557Z,29.20
2019-05-01T11:05:40.379Z,33.67
2019-05-01T11:08:10.218Z,32.38
2019-05-01T11:10:40.130Z,30.27
2019-05-01T11:13:09.805Z,30.57
2019-05-01T11:15:39.473Z,32.78
2019-05-01T11:18:09.223Z,33.57
2019-05-01T11:20:38.887Z,32.10
2019-05-01T11:23:08.575Z,25.07
2019-05-01T11:25:38.602Z,30.43
2019-05-01T11:28:08.266Z,29.87
2019-05-01T11:30:38.402Z,30.13
2019-05-01T11:33:13.936Z,33.77
2019-05-01T11:36:09.285Z,29.43
2019-05-01T11:38:51.914Z,28.93
2019-05-01T11:41:27.942Z,37.60
2019-05-01T11:43:57.689Z,31.85
2019-05-01T11:46:27.512Z,29.20
2019-05-01T11:48:57.252Z,29.13
2019-05-01T11:51:27.958Z,29.10
2019-05-01T11:53:57.626Z,28.17
2019-05-01T11:56:27.279Z,28.33
2019-05-01T11:58:56.951Z,26.43
2019-05-01T12:01:27.229Z,25.35
2019-05-01T12:03:56.899Z,24.77
2019-05-01T12:06:26.675Z,21.33
2019-05-01T12:08:56.348Z,20.23
2019-05-01T12:11:29.504Z,17.48
2019-05-01T12:13:59.195Z,20.17
2019-05-01T12:16:46.818Z,18.30
2019-05-01T12:19:16.740Z,16.43
2019-05-01T12:21:46.395Z,19.30
2019-05-01T12:24:16.149Z,19.57
2019-05-01T12:26:45.887Z,20.43
2019-05-01T12:29:15.712Z,21.70
2019-05-01T12:31:45.729Z,20.20
2019-05-01T12:34:15.403Z,24.70
2019-05-01T12:36:45.856Z,20.97
2019-05-01T12:39:16.652Z,24.10
2019-05-01T12:41:52.186Z,31.50
2019-05-01T12:44:22.849Z,26.43
2019-05-01T12:46:59.111Z,25.50
2019-05-01T12:49:29.262Z,28.30
2019-05-01T12:52:10.207Z,31.03
2019-05-01T12:54:42.335Z,26.70
2019-05-01T12:57:12.030Z,28.20
2019-05-01T12:59:41.724Z,26.23
2019-05-01T13:02:11.467Z,27.93
2019-05-01T13:04:41.150Z,25.10
2019-05-01T13:07:11.260Z,30.80
2019-05-01T13:09:40.983Z,26.77
2019-05-01T13:12:11.615Z,29.97
2019-05-01T13:14:41.634Z,27.80
2019-05-01T13:17:11.670Z,27.93
2019-05-01T13:19:41.458Z,25.47
2019-05-01T13:22:11.132Z,26.40
2019-05-01T13:24:50.119Z,22.35
2019-05-01T13:27:39.851Z,18.07
2019-05-01T13:30:22.702Z,16.73
2019-05-01T13:32:53.300Z,19.80
2019-05-01T13:35:23.679Z,19.43
2019-05-01T13:37:53.335Z,22.03
2019-05-01T13:40:23.212Z,23.38
2019-05-01T13:42:52.921Z,25.90
2019-05-01T13:45:22.910Z,20.75
2019-05-01T13:47:54.606Z,24.47
2019-05-01T13:50:24.655Z,22.27
2019-05-01T13:52:54.373Z,24.27
2019-05-01T13:55:24.337Z,22.20
2019-05-01T13:57:54.152Z,22.00
2019-05-01T14:00:26.102Z,23.05
2019-05-01T14:02:56.347Z,20.10
2019-05-01T14:05:26.506Z,18.67
2019-05-01T14:07:57.021Z,20.33
2019-05-01T14:10:26.722Z,18.57
2019-05-01T14:12:56.441Z,19.20
2019-05-01T14:15:26.108Z,17.27
2019-05-01T14:17:56.065Z,13.27
2019-05-01T14:20:46.110Z,17.62
2019-05-01T14:23:24.971Z,14.53
2019-05-01T14:26:03.652Z,13.53
2019-05-01T14:28:33.777Z,12.37
2019-05-01T14:31:03.650Z,10.55
2019-05-01T14:33:33.394Z,13.32
2019-05-01T14:36:03.139Z,11.43
2019-05-01T14:38:32.835Z,13.07
2019-05-01T14:41:02.501Z,13.97
2019-05-01T14:43:32.195Z,14.17
2019-05-01T14:46:01.855Z,14.33
2019-05-01T14:48:31.628Z,15.37
2019-05-01T14:51:01.302Z,12.60
2019-05-01T14:53:31.201Z,13.77
2019-05-01T14:56:01.300Z,10.97
2019-05-01T14:58:30.985Z,11.88
2019-05-01T15:01:00.741Z,14.87
2019-05-01T15:03:30.632Z,11.43
2019-05-01T15:06:00.318Z,12.18
2019-05-01T15:08:30.234Z,12.07
2019-05-01T15:11:00.401Z,13.88
2019-05-01T15:13:46.968Z,8.40
2019-05-01T15:16:26.909Z,12.27
2019-05-01T15:19:15.915Z,13.58
2019-05-01T15:21:45.934Z,10.50
2019-05-01T15:24:15.848Z,12.50
2019-05-01T15:26:47.221Z,9.93
2019-05-01T15:29:16.995Z,9.35
2019-05-01T15:31:46.678Z,14.70
2019-05-01T15:34:16.331Z,12.40
2019-05-01T15:36:46.240Z,9.60
2019-05-01T15:39:28.583Z,10.90
2019-05-01T15:42:11.207Z,9.43
2019-05-01T15:44:41.669Z,10.68
2019-05-01T15:47:11.685Z,14.07
2019-05-01T15:49:41.342Z,12.43
2019-05-01T15:52:11.025Z,14.90
2019-05-01T15:54:41.045Z,9.27
2019-05-01T15:57:10.735Z,10.78
2019-05-01T15:59:40.393Z,8.93
2019-05-01T16:02:10.304Z,9.07
2019-05-01T16:04:39.975Z,9.90
2019-05-01T16:07:10.071Z,9.90
2019-05-01T16:09:39.745Z,11.67
2019-05-01T16:12:17.127Z,9.47
2019-05-01T16:14:48.444Z,9.50
2019-05-01T16:17:18.184Z,12.60
2019-05-01T16:19:47.843Z,12.37
2019-05-01T16:22:17.852Z,11.93
2019-05-01T16:24:47.583Z,13.87
2019-05-01T16:27:17.578Z,10.10
2019-05-01T16:29:47.251Z,11.35
2019-05-01T16:32:17.092Z,20.43
2019-05-01T16:34:46.807Z,13.27
2019-05-01T16:37:16.551Z,11.77
2019-05-01T16:39:58.827Z,12.13
2019-05-01T16:42:39.638Z,13.40
2019-05-01T16:45:10.464Z,14.73
2019-05-01T16:47:40.135Z,12.23
2019-05-01T16:50:10.684Z,14.10
2019-05-01T16:52:42.650Z,13.67
2019-05-01T16:55:12.651Z,13.63
2019-05-01T16:57:42.309Z,16.73
2019-05-01T17:00:12.891Z,12.13
2019-05-01T17:02:57.700Z,19.00
2019-05-01T17:05:46.468Z,11.40
2019-05-01T17:08:36.307Z,12.23
2019-05-01T17:11:02.549Z,14.10
2019-05-01T17:13:32.369Z,13.10
2019-05-01T17:16:03.407Z,13.30
2019-05-01T17:18:33.371Z,11.53
2019-05-01T17:21:03.022Z,14.17
2019-05-01T17:23:32.941Z,14.90
2019-05-01T17:26:02.609Z,17.03
2019-05-01T17:28:32.891Z,14.17
2019-05-01T17:31:02.699Z,15.00
2019-05-01T17:33:32.369Z,16.42
2019-05-01T17:36:02.268Z,16.53
2019-05-01T17:38:32.177Z,13.20
2019-05-01T17:41:01.831Z,13.93
2019-05-01T17:43:31.490Z,11.93
2019-05-01T17:46:01.154Z,13.85
2019-05-01T17:48:33.647Z,12.20
2019-05-01T17:51:02.257Z,15.87
2019-05-01T17:53:31.930Z,11.23
2019-05-01T17:56:01.655Z,14.75
2019-05-01T17:58:31.320Z,12.83
2019-05-01T18:01:27.792Z,12.47
2019-05-01T18:04:21.376Z,13.98
2019-05-01T18:06:51.827Z,16.63
2019-05-01T18:09:21.753Z,14.38
2019-05-01T18:11:52.716Z,15.63
2019-05-01T18:14:23.557Z,14.03
2019-05-01T18:16:53.535Z,13.93
2019-05-01T18:19:23.511Z,15.58
2019-05-01T18:22:02.971Z,13.35
2019-05-01T18:24:45.060Z,15.13
2019-05-01T18:27:35.254Z,14.65
2019-05-01T18:30:08.394Z,17.60
2019-05-01T18:32:46.913Z,15.58
2019-05-01T18:35:16.082Z,18.03
2019-05-01T18:38:06.435Z,15.08
2019-05-01T18:40:41.482Z,16.13
2019-05-01T18:43:11.308Z,16.93
2019-05-01T18:45:49.500Z,17.07
2019-05-01T18:48:19.984Z,17.83
2019-05-01T18:50:54.663Z,16.60
2019-05-01T18:53:21.293Z,16.48
2019-05-01T18:55:51.140Z,20.47
2019-05-01T18:58:20.791Z,19.53
2019-05-01T19:00:50.616Z,20.77
2019-05-01T19:03:22.435Z,19.10
2019-05-01T19:05:52.204Z,22.42
2019-05-01T19:08:22.020Z,20.53
2019-05-01T19:10:52.789Z,19.87
2019-05-01T19:13:22.637Z,20.93
2019-05-01T19:15:52.576Z,21.03
2019-05-01T19:18:22.532Z,19.67
2019-05-01T19:20:59.317Z,20.97
2019-05-01T19:23:27.924Z,18.33
2019-05-01T19:25:56.496Z,21.57
2019-05-01T19:28:27.127Z,21.77
2019-05-01T19:30:56.915Z,21.23
2019-05-01T19:33:26.872Z,19.93
2019-05-01T19:35:56.541Z,23.57
2019-05-01T19:38:29.573Z,22.43
2019-05-01T19:40:57.813Z,19.82
2019-05-01T19:43:27.465Z,18.90
2019-05-01T19:45:57.308Z,22.63
2019-05-01T19:48:27.036Z,20.53
2019-05-01T19:50:56.696Z,19.47
2019-05-01T19:53:28.978Z,19.48
2019-05-01T19:55:58.770Z,21.27
2019-05-01T19:58:28.412Z,22.47
2019-05-01T20:01:00.353Z,23.75
2019-05-01T20:03:36.154Z,19.80
2019-05-01T20:06:06.210Z,20.50
2019-05-01T20:08:35.678Z,20.53
2019-05-01T20:11:09.395Z,21.00
2019-05-01T20:13:39.175Z,20.43
2019-05-01T20:16:09.872Z,20.83
2019-05-01T20:18:39.520Z,19.27
2019-05-01T20:21:09.264Z,22.27
2019-05-01T20:23:39.238Z,21.00
2019-05-01T20:26:08.977Z,19.27
2019-05-01T20:28:38.627Z,22.77
2019-05-01T20:31:08.309Z,22.00
2019-05-01T20:33:38.886Z,22.40
2019-05-01T20:36:09.321Z,21.53
2019-05-01T20:38:39.227Z,21.90
2019-05-01T20:41:10.241Z,20.73
2019-05-01T20:43:46.864Z,22.20
2019-05-01T20:46:46.436Z,25.02
2019-05-01T20:49:16.420Z,26.65
2019-05-01T20:51:46.404Z,26.33
2019-05-01T20:54:16.066Z,29.10
2019-05-01T20:56:51.833Z,21.10
2019-05-01T20:59:21.490Z,28.27
2019-05-01T21:01:51.242Z,25.23
2019-05-01T21:04:44.214Z,23.50
2019-05-01T21:07:21.190Z,22.87
2019-05-01T21:09:57.301Z,25.90
2019-05-01T21:12:22.450Z,28.17
2019-05-01T21:14:52.120Z,24.57
2019-05-01T21:17:21.898Z,25.50
2019-05-01T21:19:51.698Z,24.53
2019-05-01T21:22:23.308Z,25.33
2019-05-01T21:24:53.351Z,23.70
2019-05-01T21:27:24.326Z,23.10
2019-05-01T21:29:54.034Z,21.37
2019-05-01T21:32:27.384Z,27.27
2019-05-01T21:34:56.045Z,26.85
2019-05-01T21:37:25.958Z,25.87
2019-05-01T21:39:55.937Z,28.20
2019-05-01T21:42:25.602Z,29.77
2019-05-01T21:44:55.261Z,27.27
2019-05-01T21:47:25.421Z,24.10
2019-05-01T21:49:55.066Z,20.23
2019-05-01T21:52:26.843Z,21.30
2019-05-01T21:54:57.076Z,27.93
2019-05-01T21:57:29.588Z,33.20
2019-05-01T21:59:58.161Z,24.70
2019-05-01T22:02:27.899Z,26.10
2019-05-01T22:04:57.802Z,24.07
2019-05-01T22:07:28.979Z,29.70
2019-05-01T22:09:58.689Z,28.97
2019-05-01T22:12:28.356Z,28.20
2019-05-01T22:15:01.296Z,24.53
2019-05-01T22:17:43.033Z,26.70
2019-05-01T22:20:14.617Z,20.23
2019-05-01T22:22:52.082Z,26.80
2019-05-01T22:25:25.899Z,22.93
2019-05-01T22:28:07.989Z,25.17
2019-05-01T22:30:45.967Z,22.63
2019-05-01T22:33:13.653Z,28.60
2019-05-01T22:35:51.290Z,22.37
2019-05-01T22:38:21.094Z,30.93
2019-05-01T22:41:06.175Z,28.17
2019-05-01T22:43:27.393Z,28.63
2019-05-01T22:46:01.541Z,27.33
2019-05-01T22:48:28.540Z,25.90
2019-05-01T22:51:02.170Z,27.83
2019-05-01T22:53:32.162Z,28.30
2019-05-01T22:56:03.914Z,28.05
2019-05-01T22:58:33.180Z,28.60
2019-05-01T23:01:03.796Z,28.97
2019-05-01T23:03:41.175Z,31.77
2019-05-01T23:06:10.741Z,31.43
2019-05-01T23:08:40.736Z,30.57
2019-05-01T23:11:19.581Z,30.43
2019-05-01T23:13:42.710Z,32.87
2019-05-01T23:16:12.989Z,34.23
2019-05-01T23:18:47.113Z,32.07
2019-05-01T23:21:16.048Z,33.83
2019-05-01T23:23:46.237Z,33.47
2019-05-01T23:26:16.742Z,30.60
2019-05-01T23:28:46.709Z,35.90
2019-05-01T23:31:16.785Z,33.67
2019-05-01T23:33:50.624Z,34.30
2019-05-01T23:36:23.665Z,36.95
2019-05-01T23:38:49.544Z,32.93
2019-05-01T23:41:24.778Z,40.63
2019-05-01T23:43:50.593Z,40.75
2019-05-01T23:46:20.248Z,36.33
2019-05-01T23:48:49.902Z,40.58
2019-05-01T23:51:23.656Z,38.40
2019-05-01T23:53:51.061Z,37.30
2019-05-01T23:56:21.692Z,38.60
2019-05-01T23:58:51.345Z,40.93
